createdAt,value
2018-02-03T00:00:59.525Z,73.08
2018-02-03T00:03:29.568Z,73.14
2018-02-03T00:05:59.495Z,72.89
2018-02-03T00:08:30.079Z,73.16
2018-02-03T00:11:00.853Z,73.56
2018-02-03T00:13:31.141Z,73.67
2018-02-03T00:16:01.288Z,74.31
2018-02-03T00:18:31.592Z,74.59
2018-02-03T00:21:01.753Z,74.38
2018-02-03T00:23:31.955Z,74.50
2018-02-03T00:26:02.321Z,74.55
2018-02-03T00:28:32.922Z,75.00
2018-02-03T00:31:02.788Z,75.18
2018-02-03T00:33:33.133Z,75.17
2018-02-03T00:36:03.848Z,74.73
2018-02-03T00:38:33.733Z,74.85
2018-02-03T00:41:03.519Z,74.32
2018-02-03T00:43:33.529Z,73.34
2018-02-03T00:46:03.582Z,73.92
2018-02-03T00:48:33.735Z,74.39
2018-02-03T00:51:04.654Z,74.49
2018-02-03T00:53:35.432Z,74.49
2018-02-03T00:56:05.345Z,74.71
2018-02-03T00:58:35.514Z,75.06
2018-02-03T01:01:05.357Z,74.71
2018-02-03T01:03:36.108Z,74.84
2018-02-03T01:06:06.745Z,74.65
2018-02-03T01:08:37.399Z,74.76
2018-02-03T01:11:07.314Z,74.10
2018-02-03T01:13:37.273Z,74.65
2018-02-03T01:16:07.134Z,74.36
2018-02-03T01:18:37.015Z,74.53
2018-02-03T01:21:06.848Z,74.83
2018-02-03T01:23:37.544Z,74.77
2018-02-03T01:26:07.487Z,74.68
2018-02-03T01:28:38.649Z,74.49
2018-02-03T01:31:10.090Z,74.80
2018-02-03T01:33:43.773Z,75.05
2018-02-03T01:36:15.299Z,75.20
2018-02-03T01:38:46.496Z,75.23
2018-02-03T01:41:16.464Z,74.69
2018-02-03T01:43:46.273Z,75.14
2018-02-03T01:46:16.690Z,75.34
2018-02-03T01:48:46.708Z,75.42
2018-02-03T01:51:16.825Z,75.50
2018-02-03T01:53:46.841Z,75.68
2018-02-03T01:56:16.897Z,75.85
2018-02-03T01:58:46.977Z,75.04
2018-02-03T02:01:17.000Z,74.28
2018-02-03T02:03:46.938Z,74.69
2018-02-03T02:06:16.743Z,75.42
2018-02-03T02:08:46.750Z,75.03
2018-02-03T02:11:16.568Z,75.35
2018-02-03T02:13:46.425Z,75.69
2018-02-03T02:16:17.113Z,75.72
2018-02-03T02:18:47.278Z,76.58
2018-02-03T02:21:17.073Z,76.84
2018-02-03T02:23:47.064Z,77.23
2018-02-03T02:26:16.949Z,77.11
2018-02-03T02:28:46.876Z,77.06
2018-02-03T02:31:16.857Z,77.16
2018-02-03T02:33:46.800Z,77.12
2018-02-03T02:36:16.835Z,76.78
2018-02-03T02:38:46.769Z,76.68
2018-02-03T02:41:16.741Z,76.92
2018-02-03T02:43:46.647Z,77.16
2018-02-03T02:46:16.700Z,76.68
2018-02-03T02:48:46.470Z,77.20
2018-02-03T02:51:17.348Z,77.37
2018-02-03T02:53:47.336Z,76.89
2018-02-03T02:56:17.260Z,76.59
2018-02-03T02:58:47.215Z,76.47
2018-02-03T03:01:17.235Z,76.08
2018-02-03T03:03:47.240Z,76.26
2018-02-03T03:06:17.078Z,75.99
2018-02-03T03:08:47.249Z,76.32
2018-02-03T03:11:17.462Z,76.76
2018-02-03T03:13:47.433Z,77.02
2018-02-03T03:16:17.427Z,76.94
2018-02-03T03:18:47.392Z,76.62
2018-02-03T03:21:17.340Z,76.25
2018-02-03T03:23:47.316Z,75.66
2018-02-03T03:26:17.949Z,75.88
2018-02-03T03:28:48.660Z,75.79
2018-02-03T03:31:18.658Z,75.18
2018-02-03T03:33:48.635Z,74.98
2018-02-03T03:36:18.538Z,75.32
2018-02-03T03:38:48.306Z,75.30
2018-02-03T03:41:18.565Z,75.51
2018-02-03T03:43:49.362Z,75.76
2018-02-03T03:46:19.347Z,76.36
2018-02-03T03:48:49.195Z,76.67
2018-02-03T03:51:19.030Z,76.60
2018-02-03T03:53:49.006Z,76.74
2018-02-03T03:56:18.738Z,76.44
2018-02-03T03:58:48.999Z,76.51
2018-02-03T04:01:19.066Z,76.68
2018-02-03T04:03:49.043Z,76.88
2018-02-03T04:06:19.900Z,76.54
2018-02-03T04:08:49.911Z,76.43
2018-02-03T04:11:19.733Z,76.75
2018-02-03T04:13:49.958Z,76.54
2018-02-03T04:16:19.866Z,76.91
2018-02-03T04:18:50.077Z,77.20
2018-02-03T04:21:20.278Z,77.47
2018-02-03T04:23:50.850Z,77.44
2018-02-03T04:26:20.724Z,77.45
2018-02-03T04:28:51.298Z,77.62
2018-02-03T04:31:21.273Z,77.55
2018-02-03T04:33:51.956Z,77.62
2018-02-03T04:36:21.868Z,77.54
2018-02-03T04:38:51.713Z,77.52
2018-02-03T04:41:21.932Z,77.29
2018-02-03T04:43:51.845Z,77.05
2018-02-03T04:46:21.657Z,77.17
2018-02-03T04:48:54.048Z,76.85
2018-02-03T04:51:24.668Z,76.53
2018-02-03T04:53:54.462Z,76.76
2018-02-03T04:56:24.437Z,76.90
2018-02-03T04:58:54.292Z,77.05
2018-02-03T05:01:24.545Z,77.29
2018-02-03T05:03:54.487Z,77.46
2018-02-03T05:06:24.482Z,77.69
2018-02-03T05:08:54.341Z,77.60
2018-02-03T05:11:24.334Z,77.48
2018-02-03T05:13:54.986Z,77.33
2018-02-03T05:16:25.033Z,77.20
2018-02-03T05:18:55.038Z,76.91
2018-02-03T05:21:24.836Z,76.95
2018-02-03T05:23:54.853Z,77.30
2018-02-03T05:26:24.732Z,77.35
2018-02-03T05:28:54.508Z,77.39
2018-02-03T05:31:24.245Z,77.54
2018-02-03T05:33:54.469Z,77.61
2018-02-03T05:36:24.442Z,77.63
2018-02-03T05:38:54.326Z,77.48
2018-02-03T05:41:25.199Z,77.50
2018-02-03T05:43:55.148Z,77.43
2018-02-03T05:46:25.087Z,77.32
2018-02-03T05:48:55.710Z,77.23
2018-02-03T05:51:25.715Z,77.29
2018-02-03T05:53:55.613Z,77.39
2018-02-03T05:56:25.687Z,77.37
2018-02-03T05:58:55.544Z,77.39
2018-02-03T06:01:25.925Z,77.51
2018-02-03T06:03:56.550Z,77.63
2018-02-03T06:06:27.490Z,77.72
2018-02-03T06:08:58.905Z,77.68
2018-02-03T06:11:29.088Z,77.55
2018-02-03T06:13:59.306Z,77.70
2018-02-03T06:16:29.388Z,77.71
2018-02-03T06:19:00.770Z,77.83
2018-02-03T06:21:31.022Z,77.67
2018-02-03T06:24:01.309Z,77.45
2018-02-03T06:26:31.549Z,77.67
2018-02-03T06:29:01.604Z,77.68
2018-02-03T06:31:32.207Z,77.75
2018-02-03T06:34:02.341Z,77.77
2018-02-03T06:36:32.466Z,77.80
2018-02-03T06:39:02.610Z,77.86
2018-02-03T06:41:33.022Z,78.01
2018-02-03T06:44:03.365Z,78.02
2018-02-03T06:46:33.882Z,78.21
2018-02-03T06:49:05.156Z,78.26
2018-02-03T06:51:36.397Z,78.13
2018-02-03T06:54:07.055Z,78.14
2018-02-03T06:56:38.230Z,78.17
2018-02-03T06:59:08.883Z,78.10
2018-02-03T07:01:39.221Z,77.91
2018-02-03T07:04:09.585Z,78.08
2018-02-03T07:06:39.718Z,78.20
2018-02-03T07:09:10.905Z,78.02
2018-02-03T07:11:41.917Z,78.24
2018-02-03T07:14:12.343Z,78.23
2018-02-03T07:16:42.761Z,78.08
2018-02-03T07:19:12.800Z,78.09
2018-02-03T07:21:42.930Z,78.03
2018-02-03T07:24:13.250Z,78.10
2018-02-03T07:26:43.324Z,78.20
2018-02-03T07:29:13.793Z,78.26
2018-02-03T07:31:44.066Z,78.24
2018-02-03T07:34:14.650Z,78.31
2018-02-03T07:36:44.641Z,78.42
2018-02-03T07:39:14.789Z,78.71
2018-02-03T07:41:44.985Z,78.63
2018-02-03T07:44:14.889Z,78.52
2018-02-03T07:46:44.957Z,78.41
2018-02-03T07:49:14.893Z,80.48
2018-02-03T07:51:44.806Z,78.19
2018-02-03T07:54:14.929Z,77.83
2018-02-03T07:56:44.861Z,77.50
2018-02-03T07:59:15.177Z,77.44
2018-02-03T08:01:45.086Z,77.13
2018-02-03T08:04:16.078Z,77.39
2018-02-03T08:06:46.745Z,77.38
2018-02-03T08:09:16.623Z,77.30
2018-02-03T08:11:47.199Z,77.56
2018-02-03T08:14:17.641Z,77.53
2018-02-03T08:16:48.365Z,77.34
2018-02-03T08:19:19.058Z,77.35
2018-02-03T08:21:49.332Z,77.22
2018-02-03T08:24:20.432Z,77.15
2018-02-03T08:26:50.417Z,76.80
2018-02-03T08:29:20.429Z,77.05
2018-02-03T08:31:50.283Z,77.03
2018-02-03T08:34:20.540Z,76.82
2018-02-03T08:36:51.760Z,76.76
2018-02-03T08:39:22.054Z,76.95
2018-02-03T08:41:51.949Z,76.97
2018-02-03T08:44:22.049Z,77.01
2018-02-03T08:46:52.861Z,76.95
2018-02-03T08:49:22.878Z,76.89
2018-02-03T08:51:53.730Z,76.82
2018-02-03T08:54:23.736Z,76.43
2018-02-03T08:56:53.790Z,76.15
2018-02-03T08:59:24.652Z,75.47
2018-02-03T09:01:54.827Z,75.76
2018-02-03T09:04:25.481Z,75.59
2018-02-03T09:06:55.453Z,74.98
2018-02-03T09:09:25.345Z,74.66
2018-02-03T09:12:05.651Z,74.52
2018-02-03T09:14:35.534Z,74.69
2018-02-03T09:17:05.932Z,74.38
2018-02-03T09:19:36.048Z,74.46
2018-02-03T09:22:06.444Z,74.21
2018-02-03T09:24:36.948Z,74.88
2018-02-03T09:27:06.928Z,74.52
2018-02-03T09:29:36.818Z,74.43
2018-02-03T09:32:06.834Z,74.69
2018-02-03T09:34:36.702Z,74.57
2018-02-03T09:37:06.737Z,74.11
2018-02-03T09:39:36.670Z,76.16
2018-02-03T09:42:06.609Z,75.17
2018-02-03T09:44:36.690Z,71.32
2018-02-03T09:47:06.788Z,70.21
2018-02-03T09:49:37.761Z,76.07
2018-02-03T09:52:07.654Z,69.75
2018-02-03T09:54:38.435Z,68.71
2018-02-03T09:57:08.397Z,68.28
2018-02-03T09:59:39.365Z,67.93
2018-02-03T10:02:09.478Z,66.99
2018-02-03T10:04:39.748Z,67.64
2018-02-03T10:07:09.952Z,67.96
2018-02-03T10:09:40.001Z,67.89
2018-02-03T10:12:10.397Z,67.79
2018-02-03T10:14:40.373Z,67.61
2018-02-03T10:17:10.520Z,67.42
2018-02-03T10:19:41.317Z,67.09
2018-02-03T10:22:11.265Z,67.27
2018-02-03T10:24:41.962Z,66.84
2018-02-03T10:27:11.938Z,66.53
2018-02-03T10:29:42.713Z,65.97
2018-02-03T10:32:12.770Z,66.36
2018-02-03T10:34:42.973Z,66.78
2018-02-03T10:37:12.885Z,70.38
2018-02-03T10:39:42.738Z,66.63
2018-02-03T10:42:13.590Z,67.00
2018-02-03T10:44:43.713Z,67.38
2018-02-03T10:47:13.689Z,67.88
2018-02-03T10:49:43.612Z,68.69
2018-02-03T10:52:13.621Z,68.47
2018-02-03T10:54:43.599Z,68.47
2018-02-03T10:57:13.666Z,68.72
2018-02-03T10:59:43.635Z,68.58
2018-02-03T11:02:13.538Z,68.05
2018-02-03T11:04:43.754Z,72.69
2018-02-03T11:07:13.699Z,67.03
2018-02-03T11:09:43.657Z,66.24
2018-02-03T11:12:13.731Z,67.06
2018-02-03T11:14:43.623Z,67.15
2018-02-03T11:17:13.805Z,67.53
2018-02-03T11:19:43.834Z,67.46
2018-02-03T11:22:14.816Z,66.20
2018-02-03T11:24:45.107Z,66.82
2018-02-03T11:27:15.247Z,67.70
2018-02-03T11:29:45.229Z,68.18
2018-02-03T11:32:15.194Z,68.43
2018-02-03T11:34:45.683Z,68.36
2018-02-03T11:37:16.442Z,68.47
2018-02-03T11:39:46.434Z,68.33
2018-02-03T11:42:20.191Z,68.02
2018-02-03T11:44:50.294Z,68.21
2018-02-03T11:47:20.529Z,68.72
2018-02-03T11:49:50.982Z,68.84
2018-02-03T11:52:22.097Z,68.89
2018-02-03T11:54:52.509Z,68.73
2018-02-03T11:57:22.763Z,68.37
2018-02-03T11:59:53.101Z,68.02
2018-02-03T12:02:23.287Z,68.25
2018-02-03T12:04:53.504Z,68.20
2018-02-03T12:07:23.738Z,67.71
2018-02-03T12:09:53.754Z,68.42
2018-02-03T12:12:23.645Z,67.20
2018-02-03T12:14:53.654Z,67.59
2018-02-03T12:17:23.878Z,67.01
2018-02-03T12:19:54.250Z,67.02
2018-02-03T12:22:24.460Z,67.05
2018-02-03T12:24:54.454Z,67.44
2018-02-03T12:27:25.171Z,67.41
2018-02-03T12:29:55.725Z,67.59
2018-02-03T12:32:26.617Z,66.97
2018-02-03T12:34:56.674Z,68.48
2018-02-03T12:37:26.897Z,66.95
2018-02-03T12:39:57.644Z,66.69
2018-02-03T12:42:28.414Z,66.88
2018-02-03T12:44:58.470Z,66.78
2018-02-03T12:47:28.821Z,66.74
2018-02-03T12:49:59.505Z,66.21
2018-02-03T12:52:29.349Z,72.05
2018-02-03T12:54:59.362Z,66.26
2018-02-03T12:57:29.282Z,64.90
2018-02-03T13:00:00.053Z,74.75
2018-02-03T13:02:29.917Z,92.33
2018-02-03T13:04:59.947Z,81.09
2018-02-03T13:07:31.004Z,61.40
2018-02-03T13:10:01.927Z,57.46
2018-02-03T13:12:32.002Z,53.84
2018-02-03T13:15:02.074Z,56.91
2018-02-03T13:17:32.102Z,52.41
2018-02-03T13:20:03.838Z,53.17
2018-02-03T13:22:34.272Z,56.75
2018-02-03T13:25:04.538Z,58.70
2018-02-03T13:27:34.551Z,59.67
2018-02-03T13:30:04.497Z,61.04
2018-02-03T13:32:34.457Z,61.52
2018-02-03T13:35:05.288Z,62.31
2018-02-03T13:37:36.970Z,62.94
2018-02-03T13:40:08.038Z,63.38
2018-02-03T13:42:40.519Z,63.40
2018-02-03T13:45:10.324Z,63.96
2018-02-03T13:47:40.267Z,64.55
2018-02-03T13:50:10.214Z,64.25
2018-02-03T13:52:40.026Z,64.32
2018-02-03T13:55:09.945Z,64.30
2018-02-03T13:57:40.777Z,79.84
2018-02-03T14:00:11.472Z,59.19
2018-02-03T14:02:41.686Z,60.92
2018-02-03T14:05:11.929Z,62.25
2018-02-03T14:07:41.817Z,62.37
2018-02-03T14:10:12.729Z,64.95
2018-02-03T14:12:42.842Z,63.17
2018-02-03T14:15:12.789Z,63.53
2018-02-03T14:17:43.769Z,63.52
2018-02-03T14:20:13.729Z,64.05
2018-02-03T14:22:43.668Z,63.88
2018-02-03T14:25:14.610Z,87.09
2018-02-03T14:27:45.705Z,69.41
2018-02-03T14:30:15.626Z,58.22
2018-02-03T14:32:45.954Z,60.22
2018-02-03T14:35:16.101Z,61.67
2018-02-03T14:37:47.003Z,63.26
2018-02-03T14:40:17.922Z,64.15
2018-02-03T14:42:47.905Z,64.85
2018-02-03T14:45:17.783Z,65.19
2018-02-03T14:47:48.048Z,65.47
2018-02-03T14:50:17.990Z,64.32
2018-02-03T14:52:48.735Z,64.66
2018-02-03T14:55:18.858Z,64.76
2018-02-03T14:57:49.080Z,65.32
2018-02-03T15:00:19.772Z,65.19
2018-02-03T15:02:49.938Z,65.24
2018-02-03T15:05:19.817Z,65.40
2018-02-03T15:07:50.050Z,65.78
2018-02-03T15:10:20.091Z,66.02
2018-02-03T15:12:50.085Z,66.32
2018-02-03T15:15:21.059Z,66.54
2018-02-03T15:17:52.736Z,66.74
2018-02-03T15:20:23.397Z,66.98
2018-02-03T15:22:53.352Z,66.64
2018-02-03T15:25:24.396Z,67.00
2018-02-03T15:27:54.558Z,67.21
2018-02-03T15:30:24.762Z,67.43
2018-02-03T15:32:55.539Z,67.57
2018-02-03T15:35:26.018Z,68.00
2018-02-03T15:37:56.049Z,68.28
2018-02-03T15:40:25.880Z,68.16
2018-02-03T15:42:56.824Z,68.16
2018-02-03T15:45:27.994Z,68.30
2018-02-03T15:47:58.190Z,68.82
2018-02-03T15:50:28.235Z,68.93
2018-02-03T15:52:58.714Z,68.81
2018-02-03T15:55:28.690Z,69.09
2018-02-03T15:57:59.439Z,68.54
2018-02-03T16:00:31.892Z,68.72
2018-02-03T16:03:02.838Z,69.09
2018-02-03T16:05:33.721Z,69.18
2018-02-03T16:08:03.898Z,69.43
2018-02-03T16:10:33.955Z,69.51
2018-02-03T16:13:04.091Z,69.37
2018-02-03T16:15:34.118Z,69.12
2018-02-03T16:18:04.018Z,69.37
2018-02-03T16:20:33.998Z,69.17
2018-02-03T16:23:04.130Z,69.44
2018-02-03T16:25:33.937Z,69.46
2018-02-03T16:28:04.165Z,69.80
2018-02-03T16:30:34.167Z,69.97
2018-02-03T16:33:04.029Z,70.03
2018-02-03T16:35:34.182Z,70.12
2018-02-03T16:38:04.367Z,70.16
2018-02-03T16:40:34.218Z,70.22
2018-02-03T16:43:06.453Z,70.50
2018-02-03T16:45:38.060Z,70.11
2018-02-03T16:48:08.085Z,70.25
2018-02-03T16:50:38.345Z,70.62
2018-02-03T16:53:08.386Z,70.63
2018-02-03T16:55:39.133Z,70.90
2018-02-03T16:58:09.469Z,90.29
2018-02-03T17:00:40.893Z,77.30
2018-02-03T17:03:10.720Z,70.98
2018-02-03T17:05:40.751Z,70.45
2018-02-03T17:08:10.658Z,70.50
2018-02-03T17:10:42.464Z,70.32
2018-02-03T17:13:13.254Z,70.67
2018-02-03T17:15:43.326Z,70.76
2018-02-03T17:18:13.269Z,70.34
2018-02-03T17:20:43.400Z,70.34
2018-02-03T17:23:13.737Z,70.55
2018-02-03T17:25:44.128Z,70.42
2018-02-03T17:28:14.182Z,70.73
2018-02-03T17:30:44.111Z,70.88
2018-02-03T17:33:14.086Z,70.78
2018-02-03T17:35:44.291Z,70.84
2018-02-03T17:38:47.491Z,70.93
2018-02-03T17:41:17.631Z,70.24
2018-02-03T17:43:47.567Z,70.57
2018-02-03T17:46:22.670Z,70.80
2018-02-03T17:48:52.870Z,71.03
2018-02-03T17:51:23.446Z,70.91
2018-02-03T17:53:53.699Z,71.35
2018-02-03T17:56:28.659Z,71.63
2018-02-03T17:58:58.705Z,71.59
2018-02-03T18:01:28.740Z,71.74
2018-02-03T18:03:58.898Z,71.86
2018-02-03T18:06:32.889Z,71.85
2018-02-03T18:09:02.751Z,71.84
2018-02-03T18:11:33.021Z,71.81
2018-02-03T18:14:03.394Z,71.76
2018-02-03T18:16:33.447Z,71.94
2018-02-03T18:19:03.485Z,72.13
2018-02-03T18:21:33.533Z,72.19
2018-02-03T18:24:03.494Z,72.17
2018-02-03T18:26:33.751Z,72.35
2018-02-03T18:29:04.321Z,72.01
2018-02-03T18:31:34.316Z,72.03
2018-02-03T18:34:04.537Z,71.86
2018-02-03T18:36:34.544Z,72.25
2018-02-03T18:39:04.701Z,72.34
2018-02-03T18:41:34.956Z,72.54
2018-02-03T18:44:04.883Z,76.08
2018-02-03T18:46:34.917Z,73.01
2018-02-03T18:49:05.564Z,72.49
2018-02-03T18:51:36.507Z,72.04
2018-02-03T18:54:06.425Z,72.56
2018-02-03T18:56:36.373Z,72.43
2018-02-03T18:59:06.273Z,72.78
2018-02-03T19:01:36.137Z,72.92
2018-02-03T19:04:06.181Z,72.88
2018-02-03T19:06:36.033Z,72.41
2018-02-03T19:09:07.813Z,72.40
2018-02-03T19:11:38.545Z,85.42
2018-02-03T19:14:09.237Z,80.19
2018-02-03T19:16:39.149Z,81.06
2018-02-03T19:19:09.197Z,71.05
2018-02-03T19:21:39.427Z,70.71
2018-02-03T19:24:10.291Z,70.92
2018-02-03T19:26:40.519Z,71.54
2018-02-03T19:29:10.909Z,72.29
2018-02-03T19:31:41.220Z,72.52
2018-02-03T19:34:11.505Z,72.71
2018-02-03T19:36:42.688Z,72.79
2018-02-03T19:39:13.338Z,72.82
2018-02-03T19:41:44.170Z,72.94
2018-02-03T19:44:14.413Z,72.80
2018-02-03T19:46:44.722Z,72.75
2018-02-03T19:49:15.481Z,72.62
2018-02-03T19:51:45.671Z,72.59
2018-02-03T19:54:15.638Z,72.81
2018-02-03T19:56:45.569Z,72.97
2018-02-03T19:59:15.694Z,73.17
2018-02-03T20:01:45.884Z,73.29
2018-02-03T20:04:20.961Z,73.06
2018-02-03T20:06:50.905Z,73.42
2018-02-03T20:09:20.966Z,73.06
2018-02-03T20:11:51.037Z,73.14
2018-02-03T20:14:21.805Z,73.18
2018-02-03T20:16:51.763Z,73.21
2018-02-03T20:19:21.655Z,73.16
2018-02-03T20:21:51.472Z,73.20
2018-02-03T20:24:21.740Z,73.43
2018-02-03T20:26:51.663Z,73.64
2018-02-03T20:29:22.380Z,73.74
2018-02-03T20:31:52.371Z,73.74
2018-02-03T20:34:22.544Z,73.84
2018-02-03T20:36:53.577Z,73.91
2018-02-03T20:39:24.211Z,73.91
2018-02-03T20:41:54.942Z,73.96
2018-02-03T20:44:25.833Z,74.07
2018-02-03T20:46:55.746Z,74.44
2018-02-03T20:49:26.130Z,74.60
2018-02-03T20:51:56.912Z,74.70
2018-02-03T20:54:27.186Z,74.46
2018-02-03T20:56:58.008Z,74.35
2018-02-03T20:59:28.239Z,74.39
2018-02-03T21:01:58.998Z,74.75
2018-02-03T21:04:29.254Z,74.47
2018-02-03T21:06:59.412Z,74.21
2018-02-03T21:09:29.556Z,74.24
2018-02-03T21:11:59.653Z,74.22
2018-02-03T21:14:30.431Z,74.31
2018-02-03T21:17:00.280Z,74.79
2018-02-03T21:19:30.215Z,75.09
2018-02-03T21:22:00.282Z,75.10
2018-02-03T21:24:30.553Z,75.28
2018-02-03T21:27:00.684Z,75.31
2018-02-03T21:29:31.225Z,75.43
2018-02-03T21:32:01.541Z,75.30
2018-02-03T21:34:31.458Z,75.56
2018-02-03T21:37:01.752Z,75.48
2018-02-03T21:39:32.505Z,75.52
2018-02-03T21:42:02.703Z,75.48
2018-02-03T21:44:32.949Z,75.54
2018-02-03T21:47:02.909Z,75.25
2018-02-03T21:49:32.954Z,74.90
2018-02-03T21:52:02.955Z,74.64
2018-02-03T21:54:33.194Z,73.67
2018-02-03T21:57:03.329Z,74.24
2018-02-03T21:59:34.201Z,74.43
2018-02-03T22:02:04.339Z,74.61
2018-02-03T22:04:34.434Z,74.38
2018-02-03T22:07:04.540Z,74.87
2018-02-03T22:09:35.463Z,75.59
2018-02-03T22:12:05.845Z,76.40
2018-02-03T22:14:35.825Z,76.91
2018-02-03T22:17:06.044Z,76.17
2018-02-03T22:19:36.168Z,76.79
2018-02-03T22:22:07.005Z,77.30
2018-02-03T22:24:37.090Z,76.83
2018-02-03T22:27:07.320Z,74.83
2018-02-03T22:29:38.274Z,75.02
2018-02-03T22:32:09.340Z,74.30
2018-02-03T22:34:39.221Z,74.49
2018-02-03T22:37:09.150Z,74.59
2018-02-03T22:39:39.764Z,74.29
2018-02-03T22:42:10.963Z,74.54
2018-02-03T22:44:41.024Z,74.62
2018-02-03T22:47:11.760Z,74.43
2018-02-03T22:49:41.926Z,74.10
2018-02-03T22:52:11.809Z,73.80
2018-02-03T22:54:42.680Z,73.37
2018-02-03T22:57:12.754Z,74.01
2018-02-03T22:59:43.781Z,73.99
2018-02-03T23:02:18.422Z,73.62
2018-02-03T23:04:48.385Z,72.69
2018-02-03T23:07:18.268Z,70.97
2018-02-03T23:09:48.996Z,71.38
2018-02-03T23:12:19.753Z,71.87
2018-02-03T23:14:49.688Z,72.51
2018-02-03T23:17:19.485Z,72.77
2018-02-03T23:19:49.376Z,73.62
2018-02-03T23:22:20.062Z,75.20
2018-02-03T23:24:50.023Z,76.77
2018-02-03T23:27:20.085Z,77.83
2018-02-03T23:29:49.948Z,77.25
2018-02-03T23:32:19.972Z,77.83
2018-02-03T23:34:49.967Z,79.02
2018-02-03T23:37:20.089Z,78.20
2018-02-03T23:39:50.119Z,78.51
2018-02-03T23:42:20.172Z,78.38
2018-02-03T23:44:50.338Z,78.64
2018-02-03T23:47:21.173Z,78.18
2018-02-03T23:49:51.133Z,77.81
2018-02-03T23:52:21.433Z,77.84
2018-02-03T23:54:52.146Z,78.40
2018-02-03T23:57:22.233Z,78.48
2018-02-03T23:59:52.795Z,77.94
